Time;durP1;ratioP1;P1;durP2;ratioP2;P2;SDS_P1;SDS_P2;PMS_P1;PMS_P2;Temp;Humidity;BMP_temperature;BMP_pressure;BME280_temperature;BME280_humidity;BME280_pressure;Samples;Min_cycle;Max_cycle;Signal;HPM_P1;HPM_P2
2023/11/29 00:00:31;;;;;;;2.03;0.30;;;;;;;;;;5010258;28;20104;-69
2023/11/29 00:02:57;;;;;;;4.75;0.68;;;;;;;;;;5040201;28;20107;-69
2023/11/29 00:05:24;;;;;;;1.70;0.50;;;;;;;;;;5042175;28;20040;-68
2023/11/29 00:07:50;;;;;;;1.27;0.32;;;;;;;;;;5018740;28;20083;-69
2023/11/29 00:10:16;;;;;;;3.72;0.50;;;;;;;;;;5021334;28;20045;-69
2023/11/29 00:12:42;;;;;;;1.40;0.40;;;;;;;;;;5024064;28;20123;-69
2023/11/29 00:15:11;;;;;;;4.00;0.40;;;;;;;;;;5029507;28;20091;-68
2023/11/29 00:17:37;;;;;;;0.65;0.30;;;;;;;;;;5047499;28;20053;-69
2023/11/29 00:20:03;;;;;;;2.33;0.40;;;;;;;;;;5029041;28;20057;-69
2023/11/29 00:22:30;;;;;;;2.30;0.30;;;;;;;;;;5025999;28;20052;-68
2023/11/29 00:24:56;;;;;;;0.98;0.35;;;;;;;;;;5028089;28;20071;-69
2023/11/29 00:27:22;;;;;;;5.20;0.45;;;;;;;;;;5028434;28;20041;-69
2023/11/29 00:29:48;;;;;;;2.85;0.40;;;;;;;;;;5045677;28;20500;-69
2023/11/29 00:32:15;;;;;;;2.35;0.45;;;;;;;;;;5026849;28;20362;-69
2023/11/29 00:34:41;;;;;;;4.47;0.50;;;;;;;;;;5043823;28;20061;-69
2023/11/29 00:37:07;;;;;;;3.83;0.47;;;;;;;;;;5024192;28;20388;-68
2023/11/29 00:39:33;;;;;;;4.88;0.40;;;;;;;;;;5024079;28;20049;-69
2023/11/29 00:42:00;;;;;;;2.83;0.43;;;;;;;;;;5023144;28;20041;-68
2023/11/29 00:44:26;;;;;;;2.35;0.47;;;;;;;;;;5022127;28;20056;-69
2023/11/29 00:46:52;;;;;;;3.42;0.47;;;;;;;;;;5023617;28;20041;-69
2023/11/29 00:49:18;;;;;;;8.23;0.80;;;;;;;;;;5024007;28;20106;-68
2023/11/29 00:51:44;;;;;;;4.38;0.70;;;;;;;;;;5026827;28;20060;-69
2023/11/29 00:54:11;;;;;;;8.00;0.95;;;;;;;;;;5025874;28;20053;-69
2023/11/29 00:56:38;;;;;;;9.27;1.00;;;;;;;;;;5025342;28;20526;-69
2023/11/29 00:59:05;;;;;;;5.90;0.65;;;;;;;;;;5023828;28;20049;-69
2023/11/29 01:01:31;;;;;;;4.95;0.70;;;;;;;;;;5025891;28;20036;-69
2023/11/29 01:04:00;;;;;;;7.80;1.83;;;;;;;;;;5024972;28;20097;-69
2023/11/29 01:06:26;;;;;;;6.88;0.90;;;;;;;;;;5022399;28;21764;-69
2023/11/29 01:08:52;;;;;;;5.35;0.70;;;;;;;;;;5026289;28;20051;-69
2023/11/29 01:11:18;;;;;;;3.03;1.05;;;;;;;;;;5024650;28;20051;-69
2023/11/29 01:13:45;;;;;;;11.57;1.10;;;;;;;;;;5041225;28;20056;-69
2023/11/29 01:16:12;;;;;;;5.47;1.80;;;;;;;;;;5021388;28;20146;-68
2023/11/29 01:18:43;;;;;;;6.47;0.85;;;;;;;;;;5020513;28;20365;-69
2023/11/29 01:21:12;;;;;;;4.30;0.75;;;;;;;;;;5021361;28;20064;-69
2023/11/29 01:23:38;;;;;;;6.20;1.67;;;;;;;;;;5022886;28;20118;-68
2023/11/29 01:26:05;;;;;;;4.60;0.70;;;;;;;;;;5022146;28;20045;-69
2023/11/29 01:28:31;;;;;;;4.97;0.88;;;;;;;;;;5024754;28;20056;-69
2023/11/29 01:30:58;;;;;;;5.30;0.75;;;;;;;;;;5005914;28;20049;-69
2023/11/29 01:33:24;;;;;;;6.53;1.02;;;;;;;;;;5022540;28;20377;-68
2023/11/29 01:35:51;;;;;;;4.70;0.60;;;;;;;;;;5024524;28;20053;-69
2023/11/29 01:38:17;;;;;;;3.45;1.08;;;;;;;;;;5022287;28;20049;-69
2023/11/29 01:40:44;;;;;;;2.95;0.73;;;;;;;;;;5023112;28;20524;-69
2023/11/29 01:43:10;;;;;;;4.55;0.70;;;;;;;;;;5008593;28;20041;-69
2023/11/29 01:45:36;;;;;;;7.18;0.90;;;;;;;;;;5023004;28;20064;-69
2023/11/29 01:48:03;;;;;;;3.50;0.80;;;;;;;;;;5025017;28;20163;-69
2023/11/29 01:50:33;;;;;;;2.10;0.60;;;;;;;;;;5022329;28;20054;-69
2023/11/29 01:52:59;;;;;;;3.47;0.63;;;;;;;;;;5007617;28;20120;-68
2023/11/29 01:55:25;;;;;;;4.95;1.10;;;;;;;;;;5022217;28;20042;-69
2023/11/29 01:57:53;;;;;;;8.57;1.10;;;;;;;;;;5021720;28;20050;-69
2023/11/29 02:00:20;;;;;;;4.38;0.65;;;;;;;;;;5024378;28;20128;-69
2023/11/29 02:02:46;;;;;;;6.15;1.33;;;;;;;;;;5020682;28;20046;-69
2023/11/29 02:05:12;;;;;;;4.75;0.85;;;;;;;;;;5023670;28;20049;-69
2023/11/29 02:07:38;;;;;;;3.63;0.80;;;;;;;;;;5020734;28;20364;-69
2023/11/29 02:10:05;;;;;;;5.30;0.88;;;;;;;;;;5022456;28;20057;-69
2023/11/29 02:12:32;;;;;;;3.67;0.73;;;;;;;;;;5019998;28;20042;-69
2023/11/29 02:14:58;;;;;;;4.43;1.00;;;;;;;;;;5022929;28;20077;-68
2023/11/29 02:17:25;;;;;;;8.20;0.95;;;;;;;;;;5022077;28;20061;-68
2023/11/29 02:19:51;;;;;;;8.52;1.30;;;;;;;;;;5022320;28;20128;-69
2023/11/29 02:22:17;;;;;;;5.00;1.05;;;;;;;;;;5021999;28;20057;-69
2023/11/29 02:24:47;;;;;;;5.45;1.38;;;;;;;;;;5022765;28;20408;-69
2023/11/29 02:27:13;;;;;;;8.07;1.40;;;;;;;;;;5024643;28;20054;-69
2023/11/29 02:29:39;;;;;;;4.72;1.35;;;;;;;;;;5022905;28;20040;-69
2023/11/29 02:32:06;;;;;;;6.35;1.85;;;;;;;;;;5018395;28;20052;-69
2023/11/29 02:34:32;;;;;;;9.63;2.13;;;;;;;;;;5019375;28;20103;-69
2023/11/29 02:36:58;;;;;;;6.93;2.00;;;;;;;;;;5018295;28;20454;-68
2023/11/29 02:39:25;;;;;;;5.32;1.48;;;;;;;;;;5022195;28;20049;-69
2023/11/29 02:41:51;;;;;;;12.50;2.00;;;;;;;;;;5020441;28;20056;-69
2023/11/29 02:44:17;;;;;;;7.80;2.00;;;;;;;;;;5021272;28;20049;-68
2023/11/29 02:46:43;;;;;;;12.32;1.75;;;;;;;;;;5019609;28;20120;-69
2023/11/29 02:49:09;;;;;;;7.80;1.55;;;;;;;;;;5019247;28;20053;-69
2023/11/29 02:51:36;;;;;;;6.75;1.50;;;;;;;;;;5019274;28;20041;-68
2023/11/29 02:54:02;;;;;;;11.27;1.83;;;;;;;;;;5018132;28;20138;-69
2023/11/29 02:56:28;;;;;;;5.35;1.20;;;;;;;;;;5017525;28;20041;-68
2023/11/29 02:58:54;;;;;;;10.75;1.98;;;;;;;;;;5018823;28;20136;-68
2023/11/29 03:01:20;;;;;;;7.68;1.10;;;;;;;;;;5021692;28;20056;-68
2023/11/29 03:03:47;;;;;;;4.13;1.00;;;;;;;;;;5021872;28;20041;-68
2023/11/29 03:06:13;;;;;;;7.95;1.52;;;;;;;;;;5019971;28;20632;-68
2023/11/29 03:08:39;;;;;;;6.30;0.93;;;;;;;;;;5021720;28;20045;-68
2023/11/29 03:11:05;;;;;;;12.45;1.10;;;;;;;;;;5002781;28;20053;-69
2023/11/29 03:13:31;;;;;;;5.57;0.95;;;;;;;;;;5019668;28;20041;-68
2023/11/29 03:16:02;;;;;;;5.80;1.08;;;;;;;;;;5018370;28;20412;-68
2023/11/29 03:18:28;;;;;;;9.52;1.10;;;;;;;;;;5018891;28;20052;-68
2023/11/29 03:20:54;;;;;;;5.32;1.40;;;;;;;;;;5018667;28;20062;-68
2023/11/29 03:23:21;;;;;;;7.47;1.17;;;;;;;;;;5033102;28;20045;-68
2023/11/29 03:25:47;;;;;;;8.35;0.90;;;;;;;;;;5018485;28;20144;-69
2023/11/29 03:28:13;;;;;;;7.95;0.88;;;;;;;;;;5021458;28;20041;-68
2023/11/29 03:30:39;;;;;;;8.80;1.35;;;;;;;;;;5020200;28;20270;-69
2023/11/29 03:33:05;;;;;;;8.35;1.42;;;;;;;;;;5019060;28;20481;-69
2023/11/29 03:35:32;;;;;;;7.72;1.23;;;;;;;;;;5019024;28;20527;-68
2023/11/29 03:37:58;;;;;;;7.95;1.05;;;;;;;;;;5022415;28;20048;-69
2023/11/29 03:40:24;;;;;;;6.68;1.33;;;;;;;;;;5018209;28;20045;-69
2023/11/29 03:42:50;;;;;;;6.38;0.70;;;;;;;;;;5017565;28;20401;-69
2023/11/29 03:45:16;;;;;;;9.50;1.60;;;;;;;;;;5019963;28;20053;-69
2023/11/29 03:47:42;;;;;;;10.05;1.17;;;;;;;;;;5019942;28;20408;-69
2023/11/29 03:50:09;;;;;;;6.10;1.10;;;;;;;;;;5019522;28;20129;-69
2023/11/29 03:52:35;;;;;;;7.00;0.90;;;;;;;;;;5018234;28;20045;-69
2023/11/29 03:55:01;;;;;;;3.65;0.80;;;;;;;;;;5018011;28;20115;-69
2023/11/29 03:57:27;;;;;;;10.20;0.90;;;;;;;;;;5017939;28;20721;-69
2023/11/29 03:59:54;;;;;;;10.98;1.08;;;;;;;;;;5017500;28;20139;-69
2023/11/29 04:02:20;;;;;;;7.68;1.27;;;;;;;;;;5019596;28;20064;-68
2023/11/29 04:04:46;;;;;;;4.45;0.65;;;;;;;;;;5001785;28;20106;-69
2023/11/29 04:07:12;;;;;;;26.17;3.50;;;;;;;;;;5015358;28;20072;-69
2023/11/29 04:09:38;;;;;;;14.18;1.27;;;;;;;;;;5021509;28;20056;-69
2023/11/29 04:12:05;;;;;;;8.38;1.05;;;;;;;;;;5020060;28;20053;-69
2023/11/29 04:14:31;;;;;;;11.60;0.98;;;;;;;;;;5017469;28;21629;-69
2023/11/29 04:16:57;;;;;;;6.13;0.85;;;;;;;;;;5036901;28;20057;-68
2023/11/29 04:19:23;;;;;;;9.63;1.35;;;;;;;;;;5021470;28;20068;-69
2023/11/29 04:21:50;;;;;;;7.60;1.00;;;;;;;;;;5023149;28;20056;-69
2023/11/29 04:24:16;;;;;;;8.52;1.13;;;;;;;;;;5023661;28;20052;-69
2023/11/29 04:26:42;;;;;;;9.73;0.70;;;;;;;;;;5022709;28;20045;-69
2023/11/29 04:29:09;;;;;;;6.03;0.75;;;;;;;;;;5018174;28;20041;-69
2023/11/29 04:31:36;;;;;;;2.83;0.60;;;;;;;;;;5021712;28;20044;-68
2023/11/29 04:34:03;;;;;;;3.15;0.77;;;;;;;;;;5023081;28;20032;-68
2023/11/29 04:36:29;;;;;;;1.98;0.50;;;;;;;;;;5021430;28;20049;-69
2023/11/29 04:38:55;;;;;;;4.63;0.80;;;;;;;;;;5021982;28;20496;-69
2023/11/29 04:41:22;;;;;;;3.78;0.55;;;;;;;;;;5023221;28;20572;-68
2023/11/29 04:43:48;;;;;;;3.03;0.52;;;;;;;;;;5022121;28;20071;-68
2023/11/29 04:46:15;;;;;;;5.97;1.00;;;;;;;;;;5023012;28;20049;-68
2023/11/29 04:48:44;;;;;;;3.47;0.70;;;;;;;;;;5021644;28;20510;-68
2023/11/29 04:51:10;;;;;;;10.35;1.40;;;;;;;;;;5040215;28;20045;-69
2023/11/29 04:53:37;;;;;;;12.40;1.13;;;;;;;;;;5020278;28;20559;-69
2023/11/29 04:56:03;;;;;;;6.38;1.67;;;;;;;;;;5039044;28;20052;-68
2023/11/29 04:58:29;;;;;;;9.90;3.35;;;;;;;;;;5021388;28;20052;-69
2023/11/29 05:00:56;;;;;;;10.20;2.00;;;;;;;;;;5024531;28;20058;-69
2023/11/29 05:03:22;;;;;;;14.20;2.63;;;;;;;;;;5027382;28;20041;-69
2023/11/29 05:05:48;;;;;;;14.32;2.55;;;;;;;;;;5028783;28;20138;-69
2023/11/29 05:08:15;;;;;;;10.77;3.83;;;;;;;;;;5010923;28;20045;-69
2023/11/29 05:10:41;;;;;;;14.65;4.70;;;;;;;;;;5044402;28;20055;-69
2023/11/29 05:13:08;;;;;;;13.60;5.07;;;;;;;;;;5026378;28;20120;-69
2023/11/29 05:15:34;;;;;;;15.45;4.38;;;;;;;;;;5028907;28;20136;-69
2023/11/29 05:18:02;;;;;;;18.25;4.45;;;;;;;;;;5026490;28;20132;-69
2023/11/29 05:20:28;;;;;;;12.60;3.85;;;;;;;;;;5045892;28;20029;-69
2023/11/29 05:22:54;;;;;;;11.40;3.47;;;;;;;;;;5025113;28;20076;-69
2023/11/29 05:25:20;;;;;;;12.32;4.78;;;;;;;;;;5025607;28;20064;-69
2023/11/29 05:27:47;;;;;;;6.70;3.30;;;;;;;;;;5027527;28;20053;-69
2023/11/29 05:30:13;;;;;;;9.75;3.33;;;;;;;;;;5027656;28;20136;-69
2023/11/29 05:32:39;;;;;;;11.98;4.35;;;;;;;;;;5026725;28;20113;-69
2023/11/29 05:35:06;;;;;;;13.88;3.85;;;;;;;;;;5044853;28;20053;-69
2023/11/29 05:37:32;;;;;;;15.65;4.03;;;;;;;;;;5027417;28;20045;-69
2023/11/29 05:39:59;;;;;;;16.55;4.13;;;;;;;;;;5025298;28;20045;-69
2023/11/29 05:42:25;;;;;;;14.88;4.22;;;;;;;;;;5021587;28;20167;-69
2023/11/29 05:44:54;;;;;;;11.18;3.80;;;;;;;;;;5039753;28;20507;-69
2023/11/29 05:47:21;;;;;;;10.48;3.50;;;;;;;;;;5024874;28;20048;-69
2023/11/29 05:49:47;;;;;;;8.82;3.80;;;;;;;;;;5027232;28;20464;-70
2023/11/29 05:52:14;;;;;;;7.97;3.20;;;;;;;;;;5027151;28;20124;-70
2023/11/29 05:54:40;;;;;;;9.45;3.90;;;;;;;;;;5044664;28;20549;-69
2023/11/29 05:57:06;;;;;;;12.05;4.00;;;;;;;;;;5031662;28;20124;-69
2023/11/29 05:59:32;;;;;;;12.23;4.28;;;;;;;;;;5031161;28;20132;-69
2023/11/29 06:01:58;;;;;;;10.00;4.32;;;;;;;;;;5031891;28;20064;-69
2023/11/29 06:04:26;;;;;;;10.45;5.20;;;;;;;;;;5046222;28;20049;-68
2023/11/29 06:06:52;;;;;;;15.60;4.72;;;;;;;;;;5041044;28;20133;-69
2023/11/29 06:09:18;;;;;;;14.90;4.82;;;;;;;;;;5011010;28;20160;-69
2023/11/29 06:11:45;;;;;;;13.73;4.35;;;;;;;;;;5044787;28;20063;-69
2023/11/29 06:14:11;;;;;;;20.02;4.15;;;;;;;;;;5024676;28;20167;-69
2023/11/29 06:16:37;;;;;;;13.25;4.13;;;;;;;;;;5042886;28;20057;-68
2023/11/29 06:19:04;;;;;;;14.90;3.47;;;;;;;;;;5027802;28;20052;-69
2023/11/29 06:21:30;;;;;;;7.38;3.15;;;;;;;;;;5044536;28;20450;-69
2023/11/29 06:23:56;;;;;;;10.55;3.00;;;;;;;;;;5024673;28;20045;-67
2023/11/29 06:26:23;;;;;;;8.38;2.75;;;;;;;;;;5026401;28;20124;-68
2023/11/29 06:28:49;;;;;;;6.55;2.50;;;;;;;;;;5026294;28;20052;-69
2023/11/29 06:31:15;;;;;;;11.15;2.97;;;;;;;;;;5044540;28;20137;-69
2023/11/29 06:33:41;;;;;;;10.57;3.67;;;;;;;;;;5025808;28;20033;-66
2023/11/29 06:36:08;;;;;;;6.60;2.72;;;;;;;;;;5024465;28;20060;-65
2023/11/29 06:38:34;;;;;;;6.50;2.70;;;;;;;;;;5043789;28;20040;-66
2023/11/29 06:41:00;;;;;;;9.02;2.63;;;;;;;;;;5026354;28;20052;-66
2023/11/29 06:43:26;;;;;;;7.47;2.53;;;;;;;;;;5042681;28;20073;-66
2023/11/29 06:45:53;;;;;;;7.30;2.13;;;;;;;;;;5025422;28;20051;-66
2023/11/29 06:48:19;;;;;;;5.90;2.13;;;;;;;;;;5044520;28;20048;-66
2023/11/29 06:50:45;;;;;;;3.90;1.65;;;;;;;;;;5024439;28;20059;-66
2023/11/29 06:53:11;;;;;;;7.90;2.25;;;;;;;;;;5043450;28;20047;-65
2023/11/29 06:55:38;;;;;;;5.57;1.80;;;;;;;;;;5044919;28;20048;-66
2023/11/29 06:58:04;;;;;;;7.03;1.60;;;;;;;;;;5027891;28;20163;-66
2023/11/29 07:00:30;;;;;;;8.65;1.98;;;;;;;;;;5026243;28;21258;-66
2023/11/29 07:02:56;;;;;;;6.97;1.70;;;;;;;;;;5024010;28;20052;-66
2023/11/29 07:05:23;;;;;;;6.32;2.03;;;;;;;;;;5025769;28;20063;-65
2023/11/29 07:07:50;;;;;;;5.97;1.88;;;;;;;;;;5026630;28;20126;-65
2023/11/29 07:10:18;;;;;;;6.13;2.38;;;;;;;;;;5024076;28;20053;-66
2023/11/29 07:12:44;;;;;;;6.78;1.63;;;;;;;;;;5025800;28;20100;-65
2023/11/29 07:15:12;;;;;;;4.68;1.92;;;;;;;;;;5026032;28;20045;-66
2023/11/29 07:17:38;;;;;;;7.57;2.13;;;;;;;;;;5042806;28;20117;-65
2023/11/29 07:20:06;;;;;;;8.98;1.67;;;;;;;;;;5021281;28;20056;-66
2023/11/29 07:22:34;;;;;;;5.45;1.75;;;;;;;;;;5022531;28;20045;-66
2023/11/29 07:25:01;;;;;;;4.20;1.25;;;;;;;;;;5040165;28;20052;-66
2023/11/29 07:27:27;;;;;;;5.22;1.67;;;;;;;;;;5039780;28;20125;-65
2023/11/29 07:29:54;;;;;;;8.85;1.80;;;;;;;;;;5022874;28;20044;-66
2023/11/29 07:32:22;;;;;;;4.63;1.50;;;;;;;;;;5043407;28;20457;-65
2023/11/29 07:34:50;;;;;;;6.32;1.67;;;;;;;;;;5043782;28;20125;-66
2023/11/29 07:37:19;;;;;;;4.07;1.90;;;;;;;;;;5022789;28;20037;-66
2023/11/29 07:39:45;;;;;;;8.10;1.77;;;;;;;;;;5026488;28;20049;-66
2023/11/29 07:42:11;;;;;;;6.78;1.98;;;;;;;;;;5022588;28;20435;-66
2023/11/29 07:44:38;;;;;;;7.88;1.77;;;;;;;;;;5026299;28;20072;-66
2023/11/29 07:47:05;;;;;;;5.82;1.50;;;;;;;;;;5025713;28;20043;-66
2023/11/29 07:49:31;;;;;;;6.07;1.35;;;;;;;;;;5043060;28;20029;-65
2023/11/29 07:51:58;;;;;;;7.35;1.88;;;;;;;;;;5024751;28;20041;-66
2023/11/29 07:54:24;;;;;;;8.32;2.20;;;;;;;;;;5043809;28;20045;-66
2023/11/29 07:56:50;;;;;;;11.77;4.47;;;;;;;;;;5025861;28;20044;-66
2023/11/29 07:59:17;;;;;;;4.55;1.70;;;;;;;;;;5021594;28;20041;-65
2023/11/29 08:01:44;;;;;;;5.82;1.70;;;;;;;;;;5025386;28;20063;-65
2023/11/29 08:04:10;;;;;;;6.35;1.65;;;;;;;;;;5043653;28;20033;-66
2023/11/29 08:06:36;;;;;;;4.45;1.95;;;;;;;;;;5025606;28;20045;-65
2023/11/29 08:09:03;;;;;;;9.35;3.03;;;;;;;;;;5026171;28;20060;-65
2023/11/29 08:11:29;;;;;;;4.72;1.13;;;;;;;;;;5025368;28;20395;-66
2023/11/29 08:13:55;;;;;;;4.93;1.35;;;;;;;;;;5025106;28;20361;-65
2023/11/29 08:16:22;;;;;;;6.00;1.60;;;;;;;;;;5027217;28;20136;-66
2023/11/29 08:18:48;;;;;;;5.07;1.40;;;;;;;;;;5026145;28;20084;-65
2023/11/29 08:21:14;;;;;;;5.32;1.40;;;;;;;;;;5043011;28;20044;-65
2023/11/29 08:23:40;;;;;;;7.90;1.67;;;;;;;;;;5042791;28;20503;-66
2023/11/29 08:26:07;;;;;;;5.78;1.98;;;;;;;;;;5020066;28;20415;-74
2023/11/29 08:28:34;;;;;;;6.03;1.58;;;;;;;;;;5038879;28;20043;-65
2023/11/29 08:31:00;;;;;;;7.30;1.48;;;;;;;;;;5023970;28;20049;-65
2023/11/29 08:33:27;;;;;;;3.25;1.33;;;;;;;;;;5022959;28;20056;-66
2023/11/29 08:35:53;;;;;;;4.88;1.25;;;;;;;;;;5022453;28;20063;-66
2023/11/29 08:38:20;;;;;;;5.72;1.50;;;;;;;;;;5023665;28;20037;-66
2023/11/29 08:40:46;;;;;;;4.32;1.42;;;;;;;;;;5040009;28;20095;-65
2023/11/29 08:43:12;;;;;;;7.22;1.70;;;;;;;;;;5040197;28;20044;-65
2023/11/29 08:45:38;;;;;;;3.08;1.25;;;;;;;;;;5024662;28;20761;-65
2023/11/29 08:48:04;;;;;;;3.65;1.42;;;;;;;;;;5023854;28;20049;-66
2023/11/29 08:50:30;;;;;;;7.68;1.70;;;;;;;;;;5043712;28;20098;-65
2023/11/29 08:52:57;;;;;;;3.72;1.30;;;;;;;;;;5043087;28;20420;-65
2023/11/29 08:55:24;;;;;;;4.10;1.30;;;;;;;;;;5023575;28;20147;-66
2023/11/29 08:57:53;;;;;;;7.85;1.42;;;;;;;;;;5023716;28;20056;-66
2023/11/29 09:00:21;;;;;;;4.28;1.27;;;;;;;;;;5025640;28;20057;-66
2023/11/29 09:02:48;;;;;;;5.22;1.38;;;;;;;;;;5022894;28;20049;-67
2023/11/29 09:05:17;;;;;;;5.97;1.48;;;;;;;;;;5007162;28;20089;-66
2023/11/29 09:07:43;;;;;;;3.67;1.45;;;;;;;;;;5042477;28;20049;-67
2023/11/29 09:10:11;;;;;;;4.75;1.15;;;;;;;;;;5022191;28;20048;-67
2023/11/29 09:12:37;;;;;;;8.98;2.00;;;;;;;;;;5020368;28;20048;-67
2023/11/29 09:15:05;;;;;;;7.72;2.13;;;;;;;;;;5038995;28;20030;-67
2023/11/29 09:17:32;;;;;;;4.10;1.40;;;;;;;;;;5039678;28;20222;-67
2023/11/29 09:19:58;;;;;;;6.75;1.73;;;;;;;;;;5024717;28;20049;-66
2023/11/29 09:22:25;;;;;;;6.13;2.60;;;;;;;;;;5025940;28;20131;-67
2023/11/29 09:24:51;;;;;;;6.45;1.35;;;;;;;;;;5025224;28;20045;-62
2023/11/29 09:27:17;;;;;;;5.43;1.70;;;;;;;;;;5029022;28;20052;-66
2023/11/29 09:29:44;;;;;;;4.20;1.60;;;;;;;;;;5046192;28;20045;-66
2023/11/29 09:32:10;;;;;;;5.18;1.27;;;;;;;;;;5045425;28;20146;-66
2023/11/29 09:34:37;;;;;;;5.55;1.35;;;;;;;;;;5028820;28;20048;-66
2023/11/29 09:37:03;;;;;;;3.67;1.23;;;;;;;;;;5026976;28;20048;-66
2023/11/29 09:39:30;;;;;;;11.15;1.35;;;;;;;;;;5045665;28;20045;-66
2023/11/29 09:41:57;;;;;;;10.95;1.92;;;;;;;;;;5045937;28;20040;-66
2023/11/29 09:44:24;;;;;;;5.13;1.40;;;;;;;;;;5046250;28;20033;-66
2023/11/29 09:46:51;;;;;;;6.63;1.67;;;;;;;;;;5044538;28;20047;-66
2023/11/29 09:49:18;;;;;;;6.72;1.60;;;;;;;;;;5027176;28;20045;-67
2023/11/29 09:51:44;;;;;;;9.52;2.10;;;;;;;;;;5026564;28;20147;-66
2023/11/29 09:54:10;;;;;;;6.57;1.98;;;;;;;;;;5046268;28;20375;-67
2023/11/29 09:56:37;;;;;;;8.77;2.03;;;;;;;;;;5029058;28;20148;-67
2023/11/29 09:59:03;;;;;;;2.95;1.17;;;;;;;;;;5028509;28;20049;-67
2023/11/29 10:01:37;;;;;;;9.15;1.88;;;;;;;;;;5028670;28;20040;-67
2023/11/29 10:04:08;;;;;;;4.72;1.50;;;;;;;;;;5027223;28;20148;-67
2023/11/29 10:06:34;;;;;;;5.43;2.00;;;;;;;;;;5043241;28;20554;-67
2023/11/29 10:09:04;;;;;;;11.80;1.85;;;;;;;;;;5045909;28;20116;-67
2023/11/29 10:11:31;;;;;;;8.10;2.30;;;;;;;;;;5026713;28;20395;-66
2023/11/29 10:13:57;;;;;;;8.25;1.80;;;;;;;;;;5026607;28;20052;-66
2023/11/29 10:16:23;;;;;;;7.78;1.80;;;;;;;;;;5045771;28;20136;-65
2023/11/29 10:18:50;;;;;;;6.72;1.95;;;;;;;;;;5020672;28;20045;-66
2023/11/29 10:21:16;;;;;;;6.28;1.88;;;;;;;;;;5026891;28;20703;-66
2023/11/29 10:23:44;;;;;;;5.53;1.50;;;;;;;;;;5026813;28;20048;-73
2023/11/29 10:26:11;;;;;;;9.75;2.15;;;;;;;;;;5027780;28;20118;-66
2023/11/29 10:28:37;;;;;;;5.65;1.70;;;;;;;;;;5045119;28;20181;-66
2023/11/29 10:31:05;;;;;;;7.05;2.80;;;;;;;;;;5028270;28;20597;-66
2023/11/29 10:33:32;;;;;;;4.57;1.80;;;;;;;;;;5017905;28;22191;-66
2023/11/29 10:36:00;;;;;;;7.47;2.60;;;;;;;;;;5026021;28;20066;-66
2023/11/29 10:38:27;;;;;;;7.82;2.40;;;;;;;;;;5028949;28;20053;-66
2023/11/29 10:40:53;;;;;;;5.22;1.83;;;;;;;;;;5045128;28;20088;-66
2023/11/29 10:43:23;;;;;;;5.75;2.15;;;;;;;;;;5028188;28;20064;-66
2023/11/29 10:45:52;;;;;;;4.35;2.00;;;;;;;;;;5012817;28;20528;-66
2023/11/29 10:48:23;;;;;;;8.85;1.70;;;;;;;;;;5047398;28;20033;-66
2023/11/29 10:50:49;;;;;;;6.10;1.52;;;;;;;;;;5029125;28;20049;-66
2023/11/29 10:53:17;;;;;;;5.75;1.70;;;;;;;;;;5047838;28;20036;-66
2023/11/29 10:55:44;;;;;;;6.95;1.63;;;;;;;;;;5029595;28;20055;-66
2023/11/29 10:58:16;;;;;;;7.30;1.90;;;;;;;;;;5028908;28;20081;-66
2023/11/29 11:00:45;;;;;;;6.05;1.77;;;;;;;;;;5029725;28;20492;-67
2023/11/29 11:03:31;;;;;;;6.18;2.05;;;;;;;;;;5028484;28;20049;-70
2023/11/29 11:06:29;;;;;;;8.40;2.08;;;;;;;;;;5029553;28;20041;-71
2023/11/29 11:08:56;;;;;;;6.38;2.55;;;;;;;;;;5029489;28;20099;-71
2023/11/29 11:11:42;;;;;;;9.27;2.35;;;;;;;;;;5013781;28;20041;-73
2023/11/29 11:14:13;;;;;;;6.45;2.42;;;;;;;;;;5047329;28;20199;-66
2023/11/29 11:16:57;;;;;;;7.65;2.97;;;;;;;;;;5047349;28;20064;-66
2023/11/29 11:19:37;;;;;;;5.77;2.70;;;;;;;;;;5028504;28;20048;-67
2023/11/29 11:22:06;;;;;;;7.68;2.40;;;;;;;;;;5029692;28;20159;-67
2023/11/29 11:25:02;;;;;;;5.78;2.72;;;;;;;;;;5028101;28;20110;-66
2023/11/29 11:27:30;;;;;;;6.13;2.40;;;;;;;;;;5044282;28;20051;-67
2023/11/29 11:29:56;;;;;;;5.25;2.53;;;;;;;;;;5041720;28;20037;-67
2023/11/29 11:32:36;;;;;;;10.13;2.80;;;;;;;;;;5025331;28;20044;-68
2023/11/29 11:35:19;;;;;;;12.32;3.67;;;;;;;;;;5009606;28;20049;-68
2023/11/29 11:37:47;;;;;;;11.48;2.35;;;;;;;;;;5025150;28;20064;-68
2023/11/29 11:40:14;;;;;;;7.30;2.75;;;;;;;;;;5026728;28;20060;-68
2023/11/29 11:42:41;;;;;;;7.55;2.60;;;;;;;;;;5026713;28;20063;-68
2023/11/29 11:45:08;;;;;;;5.18;2.42;;;;;;;;;;5046044;28;20038;-68
2023/11/29 11:47:35;;;;;;;5.45;2.30;;;;;;;;;;5029012;28;20080;-68
2023/11/29 11:50:01;;;;;;;7.07;2.78;;;;;;;;;;5027048;28;20433;-76
2023/11/29 11:52:27;;;;;;;6.80;2.03;;;;;;;;;;5019871;28;20049;-69
2023/11/29 11:54:53;;;;;;;10.38;1.80;;;;;;;;;;5022926;28;20114;-67
2023/11/29 11:57:20;;;;;;;6.35;1.80;;;;;;;;;;5003651;28;20048;-67
2023/11/29 11:59:46;;;;;;;5.30;2.17;;;;;;;;;;5036456;28;20385;-68
2023/11/29 12:02:13;;;;;;;4.55;1.75;;;;;;;;;;5019813;28;20098;-68
2023/11/29 12:04:39;;;;;;;8.57;2.22;;;;;;;;;;5019291;28;20053;-68
2023/11/29 12:07:06;;;;;;;6.05;1.85;;;;;;;;;;5038332;28;20045;-68
2023/11/29 12:09:33;;;;;;;10.18;1.77;;;;;;;;;;5026467;28;20485;-67
2023/11/29 12:12:07;;;;;;;4.55;1.30;;;;;;;;;;5027624;28;20073;-68
2023/11/29 12:14:34;;;;;;;8.27;1.55;;;;;;;;;;5025798;28;20102;-67
2023/11/29 12:17:00;;;;;;;5.32;1.48;;;;;;;;;;5022773;28;20079;-68
2023/11/29 12:19:26;;;;;;;8.10;1.25;;;;;;;;;;5021428;28;20064;-67
2023/11/29 12:21:52;;;;;;;4.50;1.50;;;;;;;;;;5023349;28;20048;-69
2023/11/29 12:24:18;;;;;;;8.50;1.45;;;;;;;;;;5023202;28;20136;-68
2023/11/29 12:26:46;;;;;;;6.10;1.38;;;;;;;;;;5019446;28;20065;-67
2023/11/29 12:29:13;;;;;;;6.22;1.50;;;;;;;;;;5023192;28;20465;-67
2023/11/29 12:31:40;;;;;;;3.70;1.30;;;;;;;;;;5021330;28;20049;-68
2023/11/29 12:34:06;;;;;;;3.97;1.30;;;;;;;;;;5020275;28;20508;-68
2023/11/29 12:36:32;;;;;;;4.93;1.23;;;;;;;;;;5023834;28;20051;-69
2023/11/29 12:39:00;;;;;;;4.30;1.90;;;;;;;;;;5021416;28;20042;-68
2023/11/29 12:41:27;;;;;;;4.72;1.95;;;;;;;;;;5024536;28;20102;-68
2023/11/29 12:43:53;;;;;;;4.03;1.65;;;;;;;;;;5024302;28;20053;-68
2023/11/29 12:46:19;;;;;;;4.45;1.45;;;;;;;;;;5023266;28;20176;-68
2023/11/29 12:48:45;;;;;;;3.58;1.95;;;;;;;;;;5029046;28;20041;-68
2023/11/29 12:51:14;;;;;;;5.93;1.65;;;;;;;;;;5029139;28;20492;-68
2023/11/29 12:53:40;;;;;;;7.93;1.50;;;;;;;;;;5028939;28;20515;-68
2023/11/29 12:56:07;;;;;;;5.63;1.50;;;;;;;;;;5029420;28;20491;-68
2023/11/29 12:58:34;;;;;;;4.70;1.75;;;;;;;;;;5029239;28;20072;-68
2023/11/29 13:01:00;;;;;;;4.18;1.38;;;;;;;;;;5028846;28;20042;-68
2023/11/29 13:03:26;;;;;;;7.70;1.63;;;;;;;;;;5029542;28;20107;-68
2023/11/29 13:05:52;;;;;;;4.53;1.65;;;;;;;;;;5026434;28;20057;-68
2023/11/29 13:08:19;;;;;;;5.18;1.88;;;;;;;;;;5026620;28;20041;-67
2023/11/29 13:10:45;;;;;;;6.07;1.73;;;;;;;;;;5028404;28;20066;-67
2023/11/29 13:13:11;;;;;;;5.07;1.70;;;;;;;;;;5028245;28;20045;-67
2023/11/29 13:15:37;;;;;;;6.57;2.08;;;;;;;;;;5026917;28;20053;-67
2023/11/29 13:18:03;;;;;;;4.90;1.50;;;;;;;;;;5027125;28;20135;-67
2023/11/29 13:20:30;;;;;;;5.32;1.90;;;;;;;;;;5045358;28;20345;-67
2023/11/29 13:22:56;;;;;;;4.05;1.80;;;;;;;;;;5027068;28;20045;-67
2023/11/29 13:25:22;;;;;;;5.38;1.45;;;;;;;;;;5042103;28;20053;-67
2023/11/29 13:27:48;;;;;;;4.55;2.10;;;;;;;;;;5044660;28;20409;-67
2023/11/29 13:30:14;;;;;;;3.70;1.48;;;;;;;;;;5024985;28;20044;-67
2023/11/29 13:32:41;;;;;;;6.55;1.85;;;;;;;;;;5023783;28;20040;-66
2023/11/29 13:35:07;;;;;;;6.70;1.88;;;;;;;;;;5042685;28;20045;-67
2023/11/29 13:37:33;;;;;;;4.13;1.70;;;;;;;;;;5023874;28;20052;-67
2023/11/29 13:39:59;;;;;;;4.93;1.80;;;;;;;;;;5025473;28;20432;-67
2023/11/29 13:42:26;;;;;;;5.25;1.20;;;;;;;;;;5023865;28;20110;-67
2023/11/29 13:44:52;;;;;;;4.30;2.05;;;;;;;;;;5040641;28;20040;-65
2023/11/29 13:47:18;;;;;;;4.38;1.73;;;;;;;;;;5029584;28;20486;-66
2023/11/29 13:49:44;;;;;;;5.50;1.90;;;;;;;;;;5025067;28;20057;-66
2023/11/29 13:52:11;;;;;;;6.20;1.50;;;;;;;;;;5042675;28;20107;-67
2023/11/29 13:54:37;;;;;;;4.40;1.60;;;;;;;;;;5026536;28;20097;-66
2023/11/29 13:57:03;;;;;;;4.70;1.77;;;;;;;;;;5041201;28;20090;-66
2023/11/29 13:59:30;;;;;;;7.78;1.77;;;;;;;;;;5045802;28;20078;-67
2023/11/29 14:01:56;;;;;;;3.70;1.67;;;;;;;;;;5027445;28;20048;-66
2023/11/29 14:04:22;;;;;;;6.15;2.53;;;;;;;;;;5020201;28;20088;-67
2023/11/29 14:06:48;;;;;;;3.90;2.20;;;;;;;;;;5023668;28;20044;-66
2023/11/29 14:09:14;;;;;;;4.72;2.10;;;;;;;;;;5041130;28;20048;-66
2023/11/29 14:11:41;;;;;;;5.68;2.15;;;;;;;;;;5022103;28;20048;-67
2023/11/29 14:14:07;;;;;;;5.72;2.25;;;;;;;;;;5022277;28;20096;-67
2023/11/29 14:16:36;;;;;;;2.72;1.25;;;;;;;;;;5028787;28;20057;-67
2023/11/29 14:19:03;;;;;;;3.90;1.77;;;;;;;;;;5021928;28;20640;-67
2023/11/29 14:21:30;;;;;;;3.15;1.67;;;;;;;;;;5023542;28;20090;-68
2023/11/29 14:23:56;;;;;;;7.78;2.10;;;;;;;;;;5042664;28;20060;-68
2023/11/29 14:26:22;;;;;;;7.22;1.77;;;;;;;;;;5005710;28;20463;-69
2023/11/29 14:28:48;;;;;;;4.65;2.33;;;;;;;;;;5021667;28;20128;-68
2023/11/29 14:31:15;;;;;;;5.85;2.60;;;;;;;;;;5040716;28;20045;-65
2023/11/29 14:33:41;;;;;;;6.75;2.95;;;;;;;;;;5037873;28;20735;-69
2023/11/29 14:36:07;;;;;;;10.15;3.40;;;;;;;;;;5021877;28;20049;-69
2023/11/29 14:38:35;;;;;;;11.65;2.70;;;;;;;;;;5023720;28;21696;-69